createdAt,value
2018-08-27T00:03:04.177Z,"    0"
2018-08-27T00:07:59.563Z,"    0"
2018-08-27T00:12:56.451Z,"    0"
2018-08-27T00:17:51.825Z,"    0"
2018-08-27T00:22:47.791Z,"    0"
2018-08-27T00:27:43.948Z,"    0"
2018-08-27T00:32:40.164Z,"    0"
2018-08-27T00:37:36.036Z,"    0"
2018-08-27T00:42:32.921Z,"    0"
2018-08-27T00:47:29.129Z,"    0"
2018-08-27T00:52:25.141Z,"    0"
2018-08-27T00:57:21.475Z,"    0"
2018-08-27T01:02:17.355Z,"    0"
2018-08-27T01:07:13.315Z,"    0"
2018-08-27T01:12:09.105Z,"    0"
2018-08-27T01:17:04.904Z,"    0"
2018-08-27T01:22:01.615Z,"    0"
2018-08-27T01:26:57.314Z,"    0"
2018-08-27T01:31:54.306Z,"    0"
2018-08-27T01:36:49.803Z,"    0"
2018-08-27T01:41:45.959Z,"    0"
2018-08-27T01:46:42.870Z,"    0"
2018-08-27T01:51:38.244Z,"    0"
2018-08-27T01:56:33.999Z,"    0"
2018-08-27T02:01:30.281Z,"    0"
2018-08-27T02:06:25.950Z,"    0"
2018-08-27T02:11:22.101Z,"    0"
2018-08-27T02:16:17.925Z,"    0"
2018-08-27T02:21:13.830Z,"    0"
2018-08-27T02:26:09.775Z,"    0"
2018-08-27T02:31:06.076Z,"    0"
2018-08-27T02:36:01.728Z,"    0"
2018-08-27T02:40:57.528Z,"    0"
2018-08-27T02:45:53.587Z,"    0"
2018-08-27T02:50:49.315Z,"    0"
2018-08-27T02:55:45.361Z,"    0"
2018-08-27T03:00:41.563Z,"    0"
2018-08-27T03:05:37.249Z,"    0"
2018-08-27T03:10:33.259Z,"    0"
2018-08-27T03:15:29.663Z,"    0"
2018-08-27T03:20:25.380Z,"    0"
2018-08-27T03:25:21.038Z,"    0"
2018-08-27T03:30:16.889Z,"    0"
2018-08-27T03:35:13.926Z,"    0"
2018-08-27T03:40:09.376Z,"    0"
2018-08-27T03:45:05.261Z,"    0"
2018-08-27T03:50:02.395Z,"    0"
2018-08-27T03:54:57.812Z,"    0"
2018-08-27T03:59:53.771Z,"    0"
2018-08-27T04:04:49.793Z,"    0"
2018-08-27T04:09:47.023Z,"    4"
2018-08-27T04:14:43.448Z,"    4"
2018-08-27T04:19:39.943Z,"    8"
2018-08-27T04:24:36.031Z,"   16"
2018-08-27T04:29:31.529Z,"   32"
2018-08-27T04:34:27.899Z,"   68"
2018-08-27T04:39:24.453Z,"  112"
2018-08-27T04:44:20.312Z,"  148"
2018-08-27T04:49:17.005Z,"  152"
2018-08-27T04:54:12.651Z,"  164"
2018-08-27T04:59:08.396Z,"  232"
2018-08-27T05:04:04.118Z,"  264"
2018-08-27T05:08:59.954Z,"  352"
2018-08-27T05:13:55.428Z,"  384"
2018-08-27T05:18:51.705Z,"  352"
2018-08-27T05:23:47.389Z,"  728"
2018-08-27T05:28:43.270Z,"  852"
2018-08-27T05:33:39.842Z," 1316"
2018-08-27T05:38:36.826Z," 1440"
2018-08-27T05:43:32.239Z," 1168"
2018-08-27T05:48:28.164Z," 1328"
2018-08-27T05:53:23.929Z," 1668"
2018-08-27T05:58:19.970Z," 1464"
2018-08-27T06:03:16.733Z,"  872"
2018-08-27T06:08:12.290Z," 1020"
2018-08-27T06:13:08.376Z,"  984"
2018-08-27T06:18:04.101Z," 1080"
2018-08-27T06:23:00.338Z,"  888"
2018-08-27T06:27:56.159Z," 1168"
2018-08-27T06:32:51.962Z," 1164"
2018-08-27T06:37:48.541Z," 1452"
2018-08-27T06:42:45.346Z," 1288"
2018-08-27T06:47:40.678Z," 2116"
2018-08-27T06:52:36.794Z," 1664"
2018-08-27T06:57:33.776Z," 1588"
2018-08-27T07:02:29.125Z," 2724"
2018-08-27T07:07:24.935Z," 1480"
2018-08-27T07:12:21.825Z," 1904"
2018-08-27T07:17:18.306Z," 2024"
2018-08-27T07:22:14.170Z," 2204"
2018-08-27T07:27:10.052Z," 2848"
2018-08-27T07:32:06.612Z," 2708"
2018-08-27T07:37:03.648Z," 2632"
2018-08-27T07:41:59.265Z," 2536"
2018-08-27T07:46:55.124Z," 3100"
2018-08-27T07:51:51.097Z," 3312"
2018-08-27T07:56:48.073Z," 3684"
2018-08-27T08:01:44.660Z," 4100"
2018-08-27T08:06:41.252Z," 5088"
2018-08-27T08:11:37.283Z," 3832"
2018-08-27T08:16:33.479Z," 3308"
2018-08-27T08:21:29.179Z," 3560"
2018-08-27T08:26:25.152Z," 3036"
2018-08-27T08:31:20.950Z," 6824"
2018-08-27T08:36:17.663Z," 3552"
2018-08-27T08:41:13.750Z," 4704"
2018-08-27T08:46:10.614Z,10700
2018-08-27T08:51:06.712Z," 4472"
2018-08-27T08:56:02.238Z," 3764"
2018-08-27T09:00:59.449Z," 4996"
2018-08-27T09:05:55.080Z," 4512"
2018-08-27T09:10:51.041Z," 3592"
2018-08-27T09:15:47.474Z," 7912"
2018-08-27T09:20:43.326Z," 5188"
2018-08-27T09:25:40.430Z," 5208"
2018-08-27T09:30:36.226Z," 7088"
2018-08-27T09:35:32.355Z," 5256"
2018-08-27T09:40:28.265Z," 4732"
2018-08-27T09:45:24.136Z," 4764"
2018-08-27T09:50:21.198Z," 3304"
2018-08-27T09:55:16.992Z," 3520"
2018-08-27T10:00:14.076Z," 3460"
2018-08-27T10:05:11.385Z," 7896"
2018-08-27T10:10:07.208Z," 6988"
2018-08-27T10:15:03.365Z," 8632"
2018-08-27T10:19:59.274Z," 6564"
2018-08-27T10:24:56.658Z,10056
2018-08-27T10:29:52.436Z," 9208"
2018-08-27T10:34:48.419Z," 8516"
2018-08-27T10:39:44.391Z," 4828"
2018-08-27T10:44:40.188Z," 7712"
2018-08-27T10:49:36.232Z,10716
2018-08-27T10:54:32.312Z,10204
2018-08-27T10:59:28.441Z,15152
2018-08-27T11:04:24.643Z,10988
2018-08-27T11:09:20.742Z," 8372"
2018-08-27T11:14:16.489Z," 8324"
2018-08-27T11:19:13.512Z," 9316"
2018-08-27T11:24:09.788Z,13536
2018-08-27T11:29:06.136Z,10836
2018-08-27T11:34:04.500Z,17888
2018-08-27T11:39:02.038Z,14448
2018-08-27T11:43:57.311Z," 8796"
2018-08-27T11:48:53.791Z," 3140"
2018-08-27T11:53:48.693Z," 1016"
2018-08-27T11:58:44.138Z,"  696"
2018-08-27T12:03:39.528Z," 2084"
2018-08-27T12:08:35.404Z," 5060"
2018-08-27T12:13:31.730Z,13000
2018-08-27T12:18:29.276Z,15684
2018-08-27T12:23:25.317Z,17952
2018-08-27T12:28:22.359Z,18080
2018-08-27T12:33:18.676Z,14120
2018-08-27T12:38:15.627Z,12280
2018-08-27T12:43:11.792Z,11692
2018-08-27T12:48:08.677Z,11504
2018-08-27T12:53:04.734Z,11320
2018-08-27T12:58:01.661Z,11704
2018-08-27T13:02:58.444Z,10032
2018-08-27T13:07:53.981Z," 2132"
2018-08-27T13:12:49.443Z," 1988"
2018-08-27T13:17:44.903Z," 5808"
2018-08-27T13:22:43.022Z,12368
2018-08-27T13:27:39.037Z," 7040"
2018-08-27T13:32:35.139Z," 7852"
2018-08-27T13:37:31.944Z," 5540"
2018-08-27T13:42:27.397Z," 7476"
2018-08-27T13:47:23.578Z," 7752"
2018-08-27T13:52:20.909Z,11720
2018-08-27T13:57:16.671Z," 7212"
2018-08-27T14:02:13.143Z," 8064"
2018-08-27T14:07:09.143Z," 7188"
2018-08-27T14:12:04.941Z," 8592"
2018-08-27T14:17:00.894Z," 9872"
2018-08-27T14:21:58.280Z," 6728"
2018-08-27T14:26:53.768Z," 7088"
2018-08-27T14:31:49.751Z," 7580"
2018-08-27T14:36:45.919Z," 6120"
2018-08-27T14:41:42.771Z," 7496"
2018-08-27T14:46:38.732Z," 7052"
2018-08-27T14:51:34.582Z," 5904"
2018-08-27T14:56:30.380Z," 6980"
2018-08-27T15:01:26.323Z," 6928"
2018-08-27T15:06:22.260Z," 6064"
2018-08-27T15:11:18.167Z," 7108"
2018-08-27T15:16:14.102Z," 6528"
2018-08-27T15:21:09.919Z," 6376"
2018-08-27T15:26:05.790Z," 4716"
2018-08-27T15:31:03.045Z," 5264"
2018-08-27T15:35:58.620Z," 4128"
2018-08-27T15:40:55.242Z," 4192"
2018-08-27T15:45:50.948Z," 4328"
2018-08-27T15:50:46.686Z," 4744"
2018-08-27T15:55:42.848Z," 4540"
2018-08-27T16:00:38.753Z," 4116"
2018-08-27T16:05:35.510Z," 3684"
2018-08-27T16:10:30.696Z," 3640"
2018-08-27T16:15:27.024Z," 3624"
2018-08-27T16:20:22.718Z," 3604"
2018-08-27T16:25:19.730Z," 3336"
2018-08-27T16:30:16.474Z," 3260"
2018-08-27T16:35:12.387Z," 3060"
2018-08-27T16:40:07.841Z," 2808"
2018-08-27T16:45:04.005Z," 2736"
2018-08-27T16:49:59.852Z," 2316"
2018-08-27T16:54:55.680Z," 2472"
2018-08-27T16:59:52.504Z," 2228"
2018-08-27T17:04:48.004Z," 2012"
2018-08-27T17:09:45.168Z," 1760"
2018-08-27T17:14:41.624Z," 1440"
2018-08-27T17:19:38.337Z," 1564"
2018-08-27T17:24:34.810Z," 1388"
2018-08-27T17:29:30.222Z," 1260"
2018-08-27T17:34:25.830Z," 1048"
2018-08-27T17:39:21.483Z,"  920"
2018-08-27T17:44:16.792Z,"  748"
2018-08-27T17:49:12.467Z,"  516"
2018-08-27T17:54:08.317Z,"  332"
2018-08-27T17:59:04.227Z,"  208"
2018-08-27T18:04:00.911Z,"  180"
2018-08-27T18:08:56.462Z,"  164"
2018-08-27T18:13:52.259Z,"  128"
2018-08-27T18:18:48.410Z,"   76"
2018-08-27T18:23:44.068Z,"   64"
2018-08-27T18:28:40.117Z,"   36"
2018-08-27T18:33:36.314Z,"   32"
2018-08-27T18:38:32.109Z,"   28"
2018-08-27T18:43:27.870Z,"   12"
2018-08-27T18:48:23.733Z,"    4"
2018-08-27T18:53:19.703Z,"    0"
2018-08-27T18:58:16.646Z,"    0"
2018-08-27T19:03:12.966Z,"    0"
2018-08-27T19:08:08.992Z,"    0"
2018-08-27T19:13:04.900Z,"    0"
2018-08-27T19:18:01.088Z,"    0"
2018-08-27T19:22:57.054Z,"    0"
2018-08-27T19:27:52.896Z,"    0"
2018-08-27T19:32:49.435Z,"    0"
2018-08-27T19:37:45.791Z,"    0"
2018-08-27T19:42:41.428Z,"    0"
2018-08-27T19:47:37.531Z,"    0"
2018-08-27T19:52:33.275Z,"    0"
2018-08-27T19:57:29.189Z,"    0"
2018-08-27T20:02:25.040Z,"    0"
2018-08-27T20:07:21.708Z,"    0"
2018-08-27T20:12:18.611Z,"    0"
2018-08-27T20:17:14.243Z,"    0"
2018-08-27T20:22:10.294Z,"    0"
2018-08-27T20:27:06.175Z,"    0"
2018-08-27T20:32:01.721Z,"    0"
2018-08-27T20:36:57.958Z,"    0"
2018-08-27T20:41:53.623Z,"    0"
2018-08-27T20:46:49.527Z,"    0"
2018-08-27T20:51:45.377Z,"    0"
2018-08-27T20:56:41.331Z,"    0"
2018-08-27T21:01:37.320Z,"    0"
2018-08-27T21:06:33.880Z,"    0"
2018-08-27T21:11:30.359Z,"    0"
2018-08-27T21:16:25.589Z,"    0"
2018-08-27T21:21:21.262Z,"    0"
2018-08-27T21:26:17.169Z,"    0"
2018-08-27T21:31:13.098Z,"    0"
2018-08-27T21:36:08.691Z,"    0"
2018-08-27T21:41:05.103Z,"    0"
2018-08-27T21:46:01.189Z,"    0"
2018-08-27T21:50:57.172Z,"    0"
2018-08-27T21:55:52.905Z,"    0"
2018-08-27T22:00:48.449Z,"    0"
2018-08-27T22:05:44.527Z,"    0"
2018-08-27T22:10:40.174Z,"    0"
2018-08-27T22:15:37.371Z,"    0"
2018-08-27T22:20:33.024Z,"    0"
2018-08-27T22:25:28.737Z,"    0"
2018-08-27T22:30:25.594Z,"    0"
2018-08-27T22:35:21.132Z,"    0"
2018-08-27T22:40:17.936Z,"    0"
2018-08-27T22:45:13.460Z,"    0"
2018-08-27T22:50:08.965Z,"    0"
2018-08-27T22:55:05.694Z,"    0"
2018-08-27T23:00:02.254Z,"    0"
2018-08-27T23:04:57.259Z,"    0"
2018-08-27T23:09:53.821Z,"    0"
2018-08-27T23:14:49.590Z,"    0"
2018-08-27T23:19:46.359Z,"    0"
2018-08-27T23:24:41.899Z,"    0"
2018-08-27T23:29:37.989Z,"    0"
2018-08-27T23:34:34.008Z,"    0"
2018-08-27T23:39:30.085Z,"    0"
2018-08-27T23:44:25.738Z,"    0"
2018-08-27T23:49:22.646Z,"    0"
2018-08-27T23:54:18.175Z,"    0"
2018-08-27T23:59:14.604Z,"    0"
